Aeroporto :
LOGIN :

Iscrizione | Disclaimer

   EN    FR    IT 

 










Sommario :    VFR   VFR Marginale   IFR   IFR Intensivo   IFR Molto Intensivo
Visibilità : 
Base nubi : 
>= 8 km
>= 3000ft
5 / 8 km
1000 / 3000 ft
1500m / 5 km
500 / 1000 ft
800 / 1500m
200 / 500 ft
< 800m
< 200 ft
Simboli :   Temporali  Nebbia  Neve Forte  Precipitazioni Forti  Vento > 20 kt
SIGMETs :   Varie  Temporali  Ghiacco  Turbolenza  Onda orograficha  Ceneri Vulcaniche







- Altitudine del aeroporto : 1411 ft
- Codice IATA : SZG


LOWS - Salzburg

ULTIMO METAR :
  • 211720Z 19004KT 9999 BKN070 09/03 Q1027 NOSIG

METARs OBSOLETI :
  • 211650Z 16006KT 9999 BKN070 09/03 Q1027 NOSIG
  • 211620Z 16005KT 9999 SCT060 BKN130 10/04 Q1027 NOSIG
  • 211550Z VRB02KT 9999 SCT060 BKN120 10/03 Q1027 NOSIG
  • 211520Z 34006KT 9999 SCT060 BKN120 11/03 Q1027 NOSIG
  • 211450Z 34004KT 310V020 9999 FEW060 SCT100 BKN200 11/03 Q1027 NOSIG

TAF TAF LOWS
Valido dal 21 a 18 ore il 22 a 18 ore UTC


211715Z 2118/2218 33006KT 9999 -RA SCT020 BKN035 TX09/2118Z TN07/2218Z
TEMPO 2118/2200 15007KT
TEMPO 2200/2218 30012KT 4000 SHRA SCT010 OVC020
PROB30
TEMPO 2202/2214 2000 SHRA SCT005 BKN009
Nessun NOTAM noto per questo aeroporto.



MetMap, La meteo Aeronautica in un colpo d'occhio ! - Copyright ORBIFLY Dicembre 2007 - Disclaimer

ORBIFLY MET'MAP TEAM :

Programmazione e sviluppo : Alexandra Zaïnal
Concezione e sviluppo : Baudouin d'Aumeries
Co-Programmazione e sviluppo : Marc-Olivier Méhu
Supporto tecnico e logistico : Manuel Goepfert
Aiuto per la traduzione : Arnaldo La Scala

Contatto : metmap@orbifly.com




FONTI E CREDITI :

   NOAA